sensor_id;sensor_type;location;lat;lon;timestamp;P1;durP1;ratioP1;P2;durP2;ratioP2
76131;SDS011;64877;50.994;13.650;2023-04-03T00:01:06;3.08;;;0.90;;
76131;SDS011;64877;50.994;13.650;2023-04-03T00:03:32;4.22;;;1.10;;
76131;SDS011;64877;50.994;13.650;2023-04-03T00:05:58;5.82;;;1.02;;
76131;SDS011;64877;50.994;13.650;2023-04-03T00:08:23;5.80;;;0.90;;
76131;SDS011;64877;50.994;13.650;2023-04-03T00:10:49;4.95;;;1.40;;
76131;SDS011;64877;50.994;13.650;2023-04-03T00:13:16;6.40;;;1.15;;
76131;SDS011;64877;50.994;13.650;2023-04-03T00:15:41;8.75;;;1.73;;
76131;SDS011;64877;50.994;13.650;2023-04-03T00:18:07;6.22;;;1.45;;
76131;SDS011;64877;50.994;13.650;2023-04-03T00:20:33;3.33;;;1.13;;
76131;SDS011;64877;50.994;13.650;2023-04-03T00:22:59;4.40;;;1.08;;
76131;SDS011;64877;50.994;13.650;2023-04-03T00:25:25;5.35;;;1.20;;
76131;SDS011;64877;50.994;13.650;2023-04-03T00:27:51;5.22;;;1.30;;
76131;SDS011;64877;50.994;13.650;2023-04-03T00:30:17;1.55;;;0.70;;
76131;SDS011;64877;50.994;13.650;2023-04-03T00:32:44;7.13;;;1.38;;
76131;SDS011;64877;50.994;13.650;2023-04-03T00:35:09;5.15;;;1.33;;
76131;SDS011;64877;50.994;13.650;2023-04-03T00:37:36;4.57;;;1.00;;
76131;SDS011;64877;50.994;13.650;2023-04-03T00:40:02;3.13;;;1.05;;
76131;SDS011;64877;50.994;13.650;2023-04-03T00:42:28;4.78;;;1.20;;
76131;SDS011;64877;50.994;13.650;2023-04-03T00:47:22;5.32;;;1.10;;
76131;SDS011;64877;50.994;13.650;2023-04-03T00:49:49;5.55;;;1.00;;
76131;SDS011;64877;50.994;13.650;2023-04-03T00:52:16;4.30;;;1.10;;
76131;SDS011;64877;50.994;13.650;2023-04-03T00:54:44;4.63;;;1.05;;
76131;SDS011;64877;50.994;13.650;2023-04-03T00:57:12;4.65;;;1.00;;
76131;SDS011;64877;50.994;13.650;2023-04-03T00:59:40;3.63;;;0.85;;
76131;SDS011;64877;50.994;13.650;2023-04-03T01:02:09;3.70;;;1.17;;
76131;SDS011;64877;50.994;13.650;2023-04-03T01:04:36;6.38;;;1.10;;
76131;SDS011;64877;50.994;13.650;2023-04-03T01:07:10;4.80;;;1.00;;
76131;SDS011;64877;50.994;13.650;2023-04-03T01:09:42;3.72;;;1.17;;
76131;SDS011;64877;50.994;13.650;2023-04-03T01:14:45;2.40;;;0.90;;
76131;SDS011;64877;50.994;13.650;2023-04-03T01:25:44;6.25;;;1.08;;
76131;SDS011;64877;50.994;13.650;2023-04-03T01:28:13;3.80;;;1.48;;
76131;SDS011;64877;50.994;13.650;2023-04-03T01:31:05;2.42;;;1.10;;
76131;SDS011;64877;50.994;13.650;2023-04-03T01:33:43;3.85;;;0.95;;
76131;SDS011;64877;50.994;13.650;2023-04-03T01:36:09;3.55;;;0.90;;
76131;SDS011;64877;50.994;13.650;2023-04-03T01:38:38;2.67;;;1.05;;
76131;SDS011;64877;50.994;13.650;2023-04-03T01:41:03;2.40;;;1.00;;
76131;SDS011;64877;50.994;13.650;2023-04-03T01:43:29;4.65;;;1.38;;
76131;SDS011;64877;50.994;13.650;2023-04-03T01:45:54;3.35;;;1.15;;
76131;SDS011;64877;50.994;13.650;2023-04-03T01:48:20;3.78;;;1.10;;
76131;SDS011;64877;50.994;13.650;2023-04-03T01:50:45;4.22;;;1.05;;
76131;SDS011;64877;50.994;13.650;2023-04-03T01:53:11;6.00;;;1.58;;
76131;SDS011;64877;50.994;13.650;2023-04-03T01:55:37;3.88;;;1.20;;
76131;SDS011;64877;50.994;13.650;2023-04-03T01:58:02;3.53;;;1.08;;
76131;SDS011;64877;50.994;13.650;2023-04-03T02:00:27;4.95;;;1.20;;
76131;SDS011;64877;50.994;13.650;2023-04-03T02:02:53;3.13;;;1.17;;
76131;SDS011;64877;50.994;13.650;2023-04-03T02:05:18;4.60;;;1.30;;
76131;SDS011;64877;50.994;13.650;2023-04-03T02:07:43;4.72;;;0.90;;
76131;SDS011;64877;50.994;13.650;2023-04-03T02:10:09;4.82;;;0.80;;
76131;SDS011;64877;50.994;13.650;2023-04-03T02:12:35;3.83;;;1.10;;
76131;SDS011;64877;50.994;13.650;2023-04-03T02:15:00;5.70;;;1.45;;
76131;SDS011;64877;50.994;13.650;2023-04-03T02:17:25;5.35;;;1.40;;
76131;SDS011;64877;50.994;13.650;2023-04-03T02:19:51;4.25;;;1.10;;
76131;SDS011;64877;50.994;13.650;2023-04-03T02:22:17;5.68;;;1.42;;
76131;SDS011;64877;50.994;13.650;2023-04-03T02:24:42;6.30;;;2.10;;
76131;SDS011;64877;50.994;13.650;2023-04-03T02:27:08;5.55;;;1.25;;
76131;SDS011;64877;50.994;13.650;2023-04-03T02:29:33;11.32;;;1.15;;
76131;SDS011;64877;50.994;13.650;2023-04-03T02:31:58;5.05;;;1.17;;
76131;SDS011;64877;50.994;13.650;2023-04-03T02:34:24;3.75;;;1.30;;
76131;SDS011;64877;50.994;13.650;2023-04-03T02:36:49;4.13;;;1.50;;
76131;SDS011;64877;50.994;13.650;2023-04-03T02:39:15;6.93;;;2.25;;
76131;SDS011;64877;50.994;13.650;2023-04-03T02:41:41;5.28;;;1.10;;
76131;SDS011;64877;50.994;13.650;2023-04-03T02:44:07;8.55;;;1.65;;
76131;SDS011;64877;50.994;13.650;2023-04-03T02:46:36;3.97;;;1.00;;
76131;SDS011;64877;50.994;13.650;2023-04-03T02:49:02;3.30;;;1.35;;
76131;SDS011;64877;50.994;13.650;2023-04-03T02:51:29;7.97;;;1.63;;
76131;SDS011;64877;50.994;13.650;2023-04-03T02:53:55;3.28;;;1.02;;
76131;SDS011;64877;50.994;13.650;2023-04-03T02:56:20;2.60;;;1.00;;
76131;SDS011;64877;50.994;13.650;2023-04-03T02:58:46;6.32;;;1.10;;
76131;SDS011;64877;50.994;13.650;2023-04-03T03:01:12;3.17;;;1.30;;
76131;SDS011;64877;50.994;13.650;2023-04-03T03:03:38;3.30;;;1.10;;
76131;SDS011;64877;50.994;13.650;2023-04-03T03:06:11;5.97;;;1.35;;
76131;SDS011;64877;50.994;13.650;2023-04-03T03:08:39;3.10;;;1.23;;
76131;SDS011;64877;50.994;13.650;2023-04-03T03:11:05;5.10;;;1.45;;
76131;SDS011;64877;50.994;13.650;2023-04-03T03:13:30;4.32;;;1.38;;
76131;SDS011;64877;50.994;13.650;2023-04-03T03:15:57;4.18;;;1.35;;
76131;SDS011;64877;50.994;13.650;2023-04-03T03:18:22;3.40;;;1.17;;
76131;SDS011;64877;50.994;13.650;2023-04-03T03:20:51;5.57;;;1.10;;
76131;SDS011;64877;50.994;13.650;2023-04-03T03:23:17;3.95;;;1.35;;
76131;SDS011;64877;50.994;13.650;2023-04-03T03:25:43;5.57;;;0.98;;
76131;SDS011;64877;50.994;13.650;2023-04-03T03:28:08;3.58;;;1.20;;
76131;SDS011;64877;50.994;13.650;2023-04-03T03:30:35;5.30;;;1.15;;
76131;SDS011;64877;50.994;13.650;2023-04-03T03:33:00;4.47;;;1.35;;
76131;SDS011;64877;50.994;13.650;2023-04-03T03:35:26;3.38;;;1.30;;
76131;SDS011;64877;50.994;13.650;2023-04-03T03:37:52;3.00;;;1.08;;
76131;SDS011;64877;50.994;13.650;2023-04-03T03:40:17;6.03;;;1.55;;
76131;SDS011;64877;50.994;13.650;2023-04-03T03:42:42;6.70;;;1.35;;
76131;SDS011;64877;50.994;13.650;2023-04-03T03:45:08;6.45;;;1.33;;
76131;SDS011;64877;50.994;13.650;2023-04-03T03:47:34;2.70;;;1.00;;
76131;SDS011;64877;50.994;13.650;2023-04-03T03:50:00;7.25;;;1.30;;
76131;SDS011;64877;50.994;13.650;2023-04-03T03:52:26;5.47;;;1.23;;
76131;SDS011;64877;50.994;13.650;2023-04-03T03:54:51;4.60;;;1.58;;
76131;SDS011;64877;50.994;13.650;2023-04-03T03:57:17;5.57;;;1.35;;
76131;SDS011;64877;50.994;13.650;2023-04-03T03:59:42;5.68;;;1.67;;
76131;SDS011;64877;50.994;13.650;2023-04-03T04:02:09;5.05;;;1.50;;
76131;SDS011;64877;50.994;13.650;2023-04-03T04:04:35;6.95;;;1.52;;
76131;SDS011;64877;50.994;13.650;2023-04-03T04:07:01;6.13;;;1.30;;
76131;SDS011;64877;50.994;13.650;2023-04-03T04:09:27;4.88;;;1.20;;
76131;SDS011;64877;50.994;13.650;2023-04-03T04:11:53;5.70;;;1.75;;
76131;SDS011;64877;50.994;13.650;2023-04-03T04:14:18;5.88;;;1.02;;
76131;SDS011;64877;50.994;13.650;2023-04-03T04:16:45;6.00;;;1.30;;
76131;SDS011;64877;50.994;13.650;2023-04-03T04:19:11;3.25;;;1.15;;
76131;SDS011;64877;50.994;13.650;2023-04-03T04:21:36;4.28;;;1.27;;
76131;SDS011;64877;50.994;13.650;2023-04-03T04:24:02;5.97;;;1.67;;
76131;SDS011;64877;50.994;13.650;2023-04-03T04:26:27;2.55;;;0.90;;
76131;SDS011;64877;50.994;13.650;2023-04-03T04:28:53;3.13;;;1.38;;
76131;SDS011;64877;50.994;13.650;2023-04-03T04:31:18;5.97;;;2.50;;
76131;SDS011;64877;50.994;13.650;2023-04-03T04:33:44;5.40;;;1.65;;
76131;SDS011;64877;50.994;13.650;2023-04-03T04:36:09;8.85;;;2.28;;
76131;SDS011;64877;50.994;13.650;2023-04-03T04:38:35;5.90;;;1.50;;
76131;SDS011;64877;50.994;13.650;2023-04-03T04:41:00;2.60;;;1.13;;
76131;SDS011;64877;50.994;13.650;2023-04-03T04:43:25;5.60;;;1.40;;
76131;SDS011;64877;50.994;13.650;2023-04-03T04:46:00;6.82;;;1.35;;
76131;SDS011;64877;50.994;13.650;2023-04-03T04:48:30;7.20;;;1.90;;
76131;SDS011;64877;50.994;13.650;2023-04-03T04:50:56;5.15;;;1.70;;
76131;SDS011;64877;50.994;13.650;2023-04-03T04:53:21;6.53;;;2.17;;
76131;SDS011;64877;50.994;13.650;2023-04-03T04:55:47;5.53;;;1.67;;
76131;SDS011;64877;50.994;13.650;2023-04-03T04:58:12;4.80;;;1.95;;
76131;SDS011;64877;50.994;13.650;2023-04-03T05:00:38;4.13;;;1.38;;
76131;SDS011;64877;50.994;13.650;2023-04-03T05:03:03;7.97;;;1.75;;
76131;SDS011;64877;50.994;13.650;2023-04-03T05:05:28;5.07;;;1.70;;
76131;SDS011;64877;50.994;13.650;2023-04-03T05:07:54;4.68;;;1.20;;
76131;SDS011;64877;50.994;13.650;2023-04-03T05:10:19;6.22;;;1.17;;
76131;SDS011;64877;50.994;13.650;2023-04-03T05:12:45;5.95;;;1.23;;
76131;SDS011;64877;50.994;13.650;2023-04-03T05:15:11;4.50;;;1.48;;
76131;SDS011;64877;50.994;13.650;2023-04-03T05:17:36;5.30;;;1.45;;
76131;SDS011;64877;50.994;13.650;2023-04-03T05:20:02;5.82;;;1.50;;
76131;SDS011;64877;50.994;13.650;2023-04-03T05:22:29;6.55;;;1.40;;
76131;SDS011;64877;50.994;13.650;2023-04-03T05:24:55;10.35;;;1.73;;
76131;SDS011;64877;50.994;13.650;2023-04-03T05:27:20;9.15;;;1.90;;
76131;SDS011;64877;50.994;13.650;2023-04-03T05:29:46;4.25;;;1.45;;
76131;SDS011;64877;50.994;13.650;2023-04-03T05:32:11;7.43;;;1.98;;
76131;SDS011;64877;50.994;13.650;2023-04-03T05:34:37;7.97;;;1.65;;
76131;SDS011;64877;50.994;13.650;2023-04-03T05:37:02;5.50;;;1.40;;
76131;SDS011;64877;50.994;13.650;2023-04-03T05:39:29;5.25;;;1.40;;
76131;SDS011;64877;50.994;13.650;2023-04-03T05:41:56;6.35;;;1.80;;
76131;SDS011;64877;50.994;13.650;2023-04-03T05:44:22;5.28;;;1.77;;
76131;SDS011;64877;50.994;13.650;2023-04-03T05:46:47;7.50;;;1.52;;
76131;SDS011;64877;50.994;13.650;2023-04-03T05:49:12;5.47;;;2.15;;
76131;SDS011;64877;50.994;13.650;2023-04-03T05:51:38;4.22;;;1.40;;
76131;SDS011;64877;50.994;13.650;2023-04-03T05:54:24;4.50;;;1.33;;
76131;SDS011;64877;50.994;13.650;2023-04-03T05:56:51;4.70;;;1.40;;
76131;SDS011;64877;50.994;13.650;2023-04-03T05:59:17;3.25;;;1.40;;
76131;SDS011;64877;50.994;13.650;2023-04-03T06:01:43;8.23;;;1.83;;
76131;SDS011;64877;50.994;13.650;2023-04-03T06:04:08;8.10;;;2.13;;
76131;SDS011;64877;50.994;13.650;2023-04-03T06:09:23;3.97;;;1.30;;
76131;SDS011;64877;50.994;13.650;2023-04-03T06:11:50;5.90;;;2.17;;
76131;SDS011;64877;50.994;13.650;2023-04-03T06:14:16;7.72;;;2.35;;
76131;SDS011;64877;50.994;13.650;2023-04-03T06:16:42;6.22;;;1.98;;
76131;SDS011;64877;50.994;13.650;2023-04-03T06:19:08;8.73;;;1.95;;
76131;SDS011;64877;50.994;13.650;2023-04-03T06:21:34;9.88;;;2.13;;
76131;SDS011;64877;50.994;13.650;2023-04-03T06:24:01;5.68;;;1.70;;
76131;SDS011;64877;50.994;13.650;2023-04-03T06:26:27;6.22;;;1.85;;
76131;SDS011;64877;50.994;13.650;2023-04-03T06:28:53;10.70;;;2.20;;
76131;SDS011;64877;50.994;13.650;2023-04-03T06:31:18;5.40;;;1.85;;
76131;SDS011;64877;50.994;13.650;2023-04-03T06:33:44;9.27;;;1.85;;
76131;SDS011;64877;50.994;13.650;2023-04-03T06:36:10;7.18;;;1.75;;
76131;SDS011;64877;50.994;13.650;2023-04-03T06:38:37;6.78;;;1.95;;
76131;SDS011;64877;50.994;13.650;2023-04-03T06:41:03;8.38;;;1.88;;
76131;SDS011;64877;50.994;13.650;2023-04-03T06:43:28;4.93;;;1.55;;
76131;SDS011;64877;50.994;13.650;2023-04-03T06:45:56;8.75;;;1.75;;
76131;SDS011;64877;50.994;13.650;2023-04-03T06:48:21;9.45;;;1.92;;
76131;SDS011;64877;50.994;13.650;2023-04-03T06:50:47;3.72;;;1.70;;
76131;SDS011;64877;50.994;13.650;2023-04-03T06:53:12;6.50;;;1.65;;
76131;SDS011;64877;50.994;13.650;2023-04-03T06:55:38;8.27;;;2.17;;
76131;SDS011;64877;50.994;13.650;2023-04-03T06:58:04;11.23;;;2.25;;
76131;SDS011;64877;50.994;13.650;2023-04-03T07:00:29;9.30;;;2.80;;
76131;SDS011;64877;50.994;13.650;2023-04-03T07:02:55;8.95;;;2.28;;
76131;SDS011;64877;50.994;13.650;2023-04-03T07:05:22;5.13;;;1.83;;
76131;SDS011;64877;50.994;13.650;2023-04-03T07:07:48;7.18;;;2.30;;
76131;SDS011;64877;50.994;13.650;2023-04-03T07:10:14;7.45;;;2.42;;
76131;SDS011;64877;50.994;13.650;2023-04-03T07:12:40;6.90;;;1.80;;
76131;SDS011;64877;50.994;13.650;2023-04-03T07:15:06;9.63;;;2.45;;
76131;SDS011;64877;50.994;13.650;2023-04-03T07:17:33;14.43;;;2.67;;
76131;SDS011;64877;50.994;13.650;2023-04-03T07:19:58;10.05;;;3.17;;
76131;SDS011;64877;50.994;13.650;2023-04-03T07:22:24;8.43;;;2.25;;
76131;SDS011;64877;50.994;13.650;2023-04-03T07:24:49;6.72;;;1.90;;
76131;SDS011;64877;50.994;13.650;2023-04-03T07:27:15;7.13;;;1.55;;
76131;SDS011;64877;50.994;13.650;2023-04-03T07:29:40;6.57;;;2.28;;
76131;SDS011;64877;50.994;13.650;2023-04-03T07:32:06;6.20;;;2.00;;
76131;SDS011;64877;50.994;13.650;2023-04-03T07:34:32;11.90;;;2.53;;
76131;SDS011;64877;50.994;13.650;2023-04-03T07:36:58;10.07;;;2.03;;
76131;SDS011;64877;50.994;13.650;2023-04-03T07:39:24;10.32;;;2.67;;
76131;SDS011;64877;50.994;13.650;2023-04-03T07:41:50;7.35;;;2.22;;
76131;SDS011;64877;50.994;13.650;2023-04-03T07:44:16;6.68;;;1.92;;
76131;SDS011;64877;50.994;13.650;2023-04-03T07:46:42;8.10;;;2.10;;
76131;SDS011;64877;50.994;13.650;2023-04-03T07:49:08;5.68;;;1.58;;
76131;SDS011;64877;50.994;13.650;2023-04-03T07:51:33;4.30;;;1.70;;
76131;SDS011;64877;50.994;13.650;2023-04-03T07:53:59;5.70;;;1.70;;
76131;SDS011;64877;50.994;13.650;2023-04-03T07:56:25;4.65;;;1.70;;
76131;SDS011;64877;50.994;13.650;2023-04-03T07:58:50;6.70;;;1.80;;
76131;SDS011;64877;50.994;13.650;2023-04-03T08:01:16;8.88;;;1.90;;
76131;SDS011;64877;50.994;13.650;2023-04-03T08:03:41;6.35;;;1.95;;
76131;SDS011;64877;50.994;13.650;2023-04-03T08:06:07;8.20;;;1.98;;
76131;SDS011;64877;50.994;13.650;2023-04-03T08:08:33;6.75;;;2.40;;
76131;SDS011;64877;50.994;13.650;2023-04-03T08:11:01;4.95;;;1.45;;
76131;SDS011;64877;50.994;13.650;2023-04-03T08:13:28;3.80;;;1.35;;
76131;SDS011;64877;50.994;13.650;2023-04-03T08:15:54;5.75;;;1.80;;
76131;SDS011;64877;50.994;13.650;2023-04-03T08:18:22;5.55;;;1.75;;
76131;SDS011;64877;50.994;13.650;2023-04-03T08:20:49;7.10;;;1.55;;
76131;SDS011;64877;50.994;13.650;2023-04-03T08:23:16;6.57;;;1.95;;
76131;SDS011;64877;50.994;13.650;2023-04-03T08:25:42;8.48;;;1.77;;
76131;SDS011;64877;50.994;13.650;2023-04-03T08:28:11;5.95;;;1.88;;
76131;SDS011;64877;50.994;13.650;2023-04-03T08:30:40;5.25;;;1.30;;
76131;SDS011;64877;50.994;13.650;2023-04-03T08:33:07;5.22;;;1.83;;
76131;SDS011;64877;50.994;13.650;2023-04-03T08:35:37;5.57;;;2.13;;
76131;SDS011;64877;50.994;13.650;2023-04-03T08:38:03;5.55;;;1.65;;
76131;SDS011;64877;50.994;13.650;2023-04-03T08:40:28;6.00;;;1.73;;
76131;SDS011;64877;50.994;13.650;2023-04-03T08:48:21;6.60;;;1.92;;
76131;SDS011;64877;50.994;13.650;2023-04-03T08:53:24;9.43;;;1.30;;
76131;SDS011;64877;50.994;13.650;2023-04-03T08:55:56;7.05;;;1.90;;
76131;SDS011;64877;50.994;13.650;2023-04-03T08:58:26;7.35;;;2.00;;
76131;SDS011;64877;50.994;13.650;2023-04-03T09:00:59;5.80;;;1.75;;
76131;SDS011;64877;50.994;13.650;2023-04-03T09:03:29;5.05;;;1.50;;
76131;SDS011;64877;50.994;13.650;2023-04-03T09:13:49;4.30;;;1.40;;
76131;SDS011;64877;50.994;13.650;2023-04-03T09:21:34;6.95;;;1.85;;
76131;SDS011;64877;50.994;13.650;2023-04-03T09:24:03;6.32;;;1.85;;
76131;SDS011;64877;50.994;13.650;2023-04-03T09:26:56;6.10;;;2.00;;
76131;SDS011;64877;50.994;13.650;2023-04-03T09:29:25;4.95;;;1.60;;
76131;SDS011;64877;50.994;13.650;2023-04-03T09:32:01;9.18;;;3.45;;
76131;SDS011;64877;50.994;13.650;2023-04-03T09:34:37;5.68;;;2.83;;
76131;SDS011;64877;50.994;13.650;2023-04-03T09:37:06;5.57;;;1.92;;
76131;SDS011;64877;50.994;13.650;2023-04-03T09:39:33;6.75;;;2.40;;
76131;SDS011;64877;50.994;13.650;2023-04-03T09:42:16;4.13;;;1.48;;
76131;SDS011;64877;50.994;13.650;2023-04-03T09:44:48;7.97;;;2.30;;
76131;SDS011;64877;50.994;13.650;2023-04-03T09:47:23;7.07;;;1.85;;
76131;SDS011;64877;50.994;13.650;2023-04-03T09:55:06;6.07;;;1.73;;
76131;SDS011;64877;50.994;13.650;2023-04-03T09:57:32;6.35;;;1.95;;
76131;SDS011;64877;50.994;13.650;2023-04-03T09:59:59;4.18;;;1.33;;
76131;SDS011;64877;50.994;13.650;2023-04-03T10:02:36;6.40;;;1.60;;
76131;SDS011;64877;50.994;13.650;2023-04-03T10:05:05;2.88;;;1.33;;
76131;SDS011;64877;50.994;13.650;2023-04-03T10:10:38;5.43;;;1.33;;
76131;SDS011;64877;50.994;13.650;2023-04-03T10:13:05;3.28;;;1.67;;
76131;SDS011;64877;50.994;13.650;2023-04-03T10:15:36;3.97;;;1.67;;
76131;SDS011;64877;50.994;13.650;2023-04-03T10:18:41;4.50;;;1.90;;
76131;SDS011;64877;50.994;13.650;2023-04-03T10:21:06;7.70;;;2.03;;
76131;SDS011;64877;50.994;13.650;2023-04-03T10:23:45;4.65;;;1.58;;
76131;SDS011;64877;50.994;13.650;2023-04-03T10:34:56;4.80;;;1.02;;
76131;SDS011;64877;50.994;13.650;2023-04-03T10:37:49;5.30;;;1.20;;
76131;SDS011;64877;50.994;13.650;2023-04-03T10:43:12;5.57;;;0.98;;
76131;SDS011;64877;50.994;13.650;2023-04-03T10:54:00;3.50;;;0.85;;
76131;SDS011;64877;50.994;13.650;2023-04-03T10:56:50;6.30;;;1.00;;
76131;SDS011;64877;50.994;13.650;2023-04-03T10:59:32;2.58;;;0.82;;
76131;SDS011;64877;50.994;13.650;2023-04-03T11:04:44;4.72;;;0.90;;
76131;SDS011;64877;50.994;13.650;2023-04-03T11:07:17;2.47;;;0.70;;
76131;SDS011;64877;50.994;13.650;2023-04-03T11:09:46;1.83;;;0.70;;
76131;SDS011;64877;50.994;13.650;2023-04-03T11:12:21;3.92;;;1.40;;
76131;SDS011;64877;50.994;13.650;2023-04-03T11:15:11;3.75;;;0.90;;
76131;SDS011;64877;50.994;13.650;2023-04-03T11:17:41;5.57;;;0.93;;
76131;SDS011;64877;50.994;13.650;2023-04-03T11:25:38;2.45;;;0.60;;
76131;SDS011;64877;50.994;13.650;2023-04-03T11:28:11;4.13;;;1.45;;
76131;SDS011;64877;50.994;13.650;2023-04-03T11:30:40;3.17;;;1.23;;
76131;SDS011;64877;50.994;13.650;2023-04-03T11:33:31;4.97;;;0.88;;
76131;SDS011;64877;50.994;13.650;2023-04-03T11:36:03;1.85;;;0.70;;
76131;SDS011;64877;50.994;13.650;2023-04-03T11:38:33;3.03;;;1.20;;
76131;SDS011;64877;50.994;13.650;2023-04-03T11:41:06;1.52;;;0.47;;
76131;SDS011;64877;50.994;13.650;2023-04-03T11:43:33;3.20;;;0.85;;
76131;SDS011;64877;50.994;13.650;2023-04-03T11:46:05;3.17;;;0.73;;
76131;SDS011;64877;50.994;13.650;2023-04-03T11:51:37;2.42;;;0.98;;
76131;SDS011;64877;50.994;13.650;2023-04-03T11:53:54;5.40;;;0.85;;
76131;SDS011;64877;50.994;13.650;2023-04-03T11:56:58;5.07;;;0.98;;
76131;SDS011;64877;50.994;13.650;2023-04-03T11:59:23;6.30;;;1.13;;
76131;SDS011;64877;50.994;13.650;2023-04-03T12:01:51;2.55;;;0.80;;
76131;SDS011;64877;50.994;13.650;2023-04-03T12:04:19;2.75;;;0.60;;
76131;SDS011;64877;50.994;13.650;2023-04-03T12:09:25;2.05;;;0.98;;
76131;SDS011;64877;50.994;13.650;2023-04-03T12:11:54;4.15;;;0.85;;
76131;SDS011;64877;50.994;13.650;2023-04-03T12:14:24;3.13;;;1.10;;
76131;SDS011;64877;50.994;13.650;2023-04-03T12:16:50;3.17;;;0.85;;
76131;SDS011;64877;50.994;13.650;2023-04-03T12:24:29;3.00;;;0.75;;
76131;SDS011;64877;50.994;13.650;2023-04-03T12:27:17;5.68;;;1.38;;
76131;SDS011;64877;50.994;13.650;2023-04-03T12:35:24;3.63;;;1.00;;
76131;SDS011;64877;50.994;13.650;2023-04-03T12:43:40;4.40;;;1.00;;
76131;SDS011;64877;50.994;13.650;2023-04-03T12:46:26;2.90;;;0.85;;
76131;SDS011;64877;50.994;13.650;2023-04-03T12:49:00;5.70;;;1.10;;
76131;SDS011;64877;50.994;13.650;2023-04-03T12:51:40;5.20;;;0.90;;
76131;SDS011;64877;50.994;13.650;2023-04-03T12:54:16;1.98;;;0.82;;
76131;SDS011;64877;50.994;13.650;2023-04-03T12:56:47;5.40;;;1.30;;
76131;SDS011;64877;50.994;13.650;2023-04-03T12:59:14;2.72;;;0.75;;
76131;SDS011;64877;50.994;13.650;2023-04-03T13:01:53;6.35;;;1.25;;
76131;SDS011;64877;50.994;13.650;2023-04-03T13:04:23;3.67;;;0.90;;
76131;SDS011;64877;50.994;13.650;2023-04-03T13:06:50;4.97;;;1.15;;
76131;SDS011;64877;50.994;13.650;2023-04-03T13:09:20;3.83;;;1.15;;
76131;SDS011;64877;50.994;13.650;2023-04-03T13:11:56;5.13;;;1.30;;
76131;SDS011;64877;50.994;13.650;2023-04-03T13:14:26;3.45;;;0.93;;
76131;SDS011;64877;50.994;13.650;2023-04-03T13:16:54;4.03;;;0.85;;
76131;SDS011;64877;50.994;13.650;2023-04-03T13:19:22;3.40;;;0.90;;
76131;SDS011;64877;50.994;13.650;2023-04-03T13:21:50;2.53;;;0.98;;
76131;SDS011;64877;50.994;13.650;2023-04-03T13:24:28;7.18;;;1.08;;
76131;SDS011;64877;50.994;13.650;2023-04-03T13:26:55;3.13;;;1.15;;
76131;SDS011;64877;50.994;13.650;2023-04-03T13:29:26;5.88;;;1.58;;
76131;SDS011;64877;50.994;13.650;2023-04-03T13:31:54;2.42;;;0.90;;
76131;SDS011;64877;50.994;13.650;2023-04-03T13:34:22;3.85;;;1.10;;
76131;SDS011;64877;50.994;13.650;2023-04-03T13:41:43;2.63;;;1.08;;
76131;SDS011;64877;50.994;13.650;2023-04-03T13:44:17;5.75;;;1.02;;
76131;SDS011;64877;50.994;13.650;2023-04-03T13:49:37;4.25;;;1.08;;
76131;SDS011;64877;50.994;13.650;2023-04-03T13:52:03;4.53;;;0.70;;
76131;SDS011;64877;50.994;13.650;2023-04-03T13:55:00;4.88;;;0.90;;
76131;SDS011;64877;50.994;13.650;2023-04-03T13:57:36;3.50;;;1.00;;
76131;SDS011;64877;50.994;13.650;2023-04-03T14:00:18;2.08;;;0.90;;
76131;SDS011;64877;50.994;13.650;2023-04-03T14:03:24;2.70;;;0.85;;
76131;SDS011;64877;50.994;13.650;2023-04-03T14:05:55;5.15;;;0.90;;
76131;SDS011;64877;50.994;13.650;2023-04-03T14:08:21;2.00;;;1.00;;
76131;SDS011;64877;50.994;13.650;2023-04-03T14:10:47;4.15;;;0.90;;
76131;SDS011;64877;50.994;13.650;2023-04-03T14:13:15;4.72;;;1.05;;
76131;SDS011;64877;50.994;13.650;2023-04-03T14:15:42;4.75;;;1.38;;
76131;SDS011;64877;50.994;13.650;2023-04-03T14:18:12;3.78;;;0.77;;
76131;SDS011;64877;50.994;13.650;2023-04-03T14:20:38;3.58;;;1.00;;
76131;SDS011;64877;50.994;13.650;2023-04-03T14:23:04;4.30;;;0.95;;
76131;SDS011;64877;50.994;13.650;2023-04-03T14:25:29;8.02;;;1.20;;
76131;SDS011;64877;50.994;13.650;2023-04-03T14:27:55;2.33;;;0.68;;
76131;SDS011;64877;50.994;13.650;2023-04-03T14:30:22;4.28;;;1.02;;
76131;SDS011;64877;50.994;13.650;2023-04-03T14:32:50;2.55;;;0.90;;
76131;SDS011;64877;50.994;13.650;2023-04-03T14:35:17;3.30;;;1.20;;
76131;SDS011;64877;50.994;13.650;2023-04-03T14:37:43;5.38;;;0.93;;
76131;SDS011;64877;50.994;13.650;2023-04-03T14:40:13;3.75;;;0.90;;
76131;SDS011;64877;50.994;13.650;2023-04-03T14:42:42;4.93;;;0.70;;
76131;SDS011;64877;50.994;13.650;2023-04-03T14:45:09;2.70;;;1.00;;
76131;SDS011;64877;50.994;13.650;2023-04-03T14:47:39;6.78;;;1.20;;
76131;SDS011;64877;50.994;13.650;2023-04-03T14:50:11;3.58;;;0.90;;
76131;SDS011;64877;50.994;13.650;2023-04-03T14:52:39;2.33;;;0.80;;
76131;SDS011;64877;50.994;13.650;2023-04-03T14:55:06;3.35;;;0.95;;
76131;SDS011;64877;50.994;13.650;2023-04-03T14:57:32;3.97;;;1.30;;
76131;SDS011;64877;50.994;13.650;2023-04-03T14:59:58;2.72;;;0.70;;
76131;SDS011;64877;50.994;13.650;2023-04-03T15:02:34;4.90;;;0.80;;
76131;SDS011;64877;50.994;13.650;2023-04-03T15:05:02;4.03;;;1.38;;
76131;SDS011;64877;50.994;13.650;2023-04-03T15:07:34;3.42;;;1.00;;
76131;SDS011;64877;50.994;13.650;2023-04-03T15:10:06;2.75;;;0.90;;
76131;SDS011;64877;50.994;13.650;2023-04-03T15:12:40;7.80;;;0.98;;
76131;SDS011;64877;50.994;13.650;2023-04-03T15:15:07;4.43;;;1.00;;
76131;SDS011;64877;50.994;13.650;2023-04-03T15:17:33;6.00;;;1.00;;
76131;SDS011;64877;50.994;13.650;2023-04-03T15:19:59;3.95;;;1.20;;
76131;SDS011;64877;50.994;13.650;2023-04-03T15:22:25;4.20;;;1.10;;
76131;SDS011;64877;50.994;13.650;2023-04-03T15:24:51;1.70;;;0.73;;
76131;SDS011;64877;50.994;13.650;2023-04-03T15:27:17;6.57;;;0.95;;
76131;SDS011;64877;50.994;13.650;2023-04-03T15:29:42;3.25;;;1.00;;
76131;SDS011;64877;50.994;13.650;2023-04-03T15:32:09;3.95;;;1.30;;
76131;SDS011;64877;50.994;13.650;2023-04-03T15:34:35;3.05;;;1.13;;
76131;SDS011;64877;50.994;13.650;2023-04-03T15:37:01;4.95;;;1.15;;
76131;SDS011;64877;50.994;13.650;2023-04-03T15:39:26;2.65;;;0.57;;
76131;SDS011;64877;50.994;13.650;2023-04-03T15:41:52;3.90;;;0.80;;
76131;SDS011;64877;50.994;13.650;2023-04-03T15:44:19;3.22;;;0.90;;
76131;SDS011;64877;50.994;13.650;2023-04-03T15:46:45;8.95;;;1.30;;
76131;SDS011;64877;50.994;13.650;2023-04-03T15:49:11;2.40;;;0.98;;
76131;SDS011;64877;50.994;13.650;2023-04-03T15:51:37;3.03;;;0.80;;
76131;SDS011;64877;50.994;13.650;2023-04-03T15:54:02;5.55;;;1.30;;
76131;SDS011;64877;50.994;13.650;2023-04-03T15:56:29;2.53;;;0.70;;
76131;SDS011;64877;50.994;13.650;2023-04-03T15:58:57;2.95;;;0.88;;
76131;SDS011;64877;50.994;13.650;2023-04-03T16:01:25;5.53;;;1.25;;
76131;SDS011;64877;50.994;13.650;2023-04-03T16:03:51;5.70;;;0.98;;
76131;SDS011;64877;50.994;13.650;2023-04-03T16:06:17;2.45;;;0.95;;
76131;SDS011;64877;50.994;13.650;2023-04-03T16:08:44;4.53;;;1.48;;
76131;SDS011;64877;50.994;13.650;2023-04-03T16:11:10;3.92;;;0.90;;
76131;SDS011;64877;50.994;13.650;2023-04-03T16:13:36;2.90;;;0.95;;
76131;SDS011;64877;50.994;13.650;2023-04-03T16:16:01;5.85;;;1.50;;
76131;SDS011;64877;50.994;13.650;2023-04-03T16:18:28;4.50;;;1.00;;
76131;SDS011;64877;50.994;13.650;2023-04-03T16:20:54;4.13;;;1.50;;
76131;SDS011;64877;50.994;13.650;2023-04-03T16:23:20;3.75;;;1.13;;